createdAt,value
2022-09-02T00:01:02.383Z,0.68
2022-09-02T00:03:36.565Z,0.50
2022-09-02T00:06:04.197Z,0.35
2022-09-02T00:08:32.177Z,0.25
2022-09-02T00:11:01.192Z,0.47
2022-09-02T00:13:29.373Z,0.20
2022-09-02T00:15:56.792Z,0.60
2022-09-02T00:18:26.412Z,0.32
2022-09-02T00:20:54.216Z,0.30
2022-09-02T00:23:22.341Z,0.32
2022-09-02T00:25:50.985Z,0.55
2022-09-02T00:28:18.583Z,1.08
2022-09-02T00:30:48.160Z,0.40
2022-09-02T00:33:17.022Z,0.40
2022-09-02T00:35:44.655Z,0.43
2022-09-02T00:38:12.217Z,0.52
2022-09-02T00:40:45.391Z,0.40
2022-09-02T00:43:21.868Z,0.47
2022-09-02T00:45:49.540Z,0.32
2022-09-02T00:48:17.070Z,0.35
2022-09-02T00:50:44.698Z,0.60
2022-09-02T00:53:14.189Z,0.60
2022-09-02T00:55:46.692Z,0.40
2022-09-02T00:58:22.231Z,0.55
2022-09-02T01:00:53.027Z,0.40
2022-09-02T01:03:22.369Z,0.30
2022-09-02T01:05:51.722Z,0.20
2022-09-02T01:08:28.736Z,0.50
2022-09-02T01:10:56.978Z,0.70
2022-09-02T01:13:30.886Z,0.55
2022-09-02T01:16:06.867Z,0.38
2022-09-02T01:18:36.732Z,0.95
2022-09-02T01:21:05.014Z,0.57
2022-09-02T01:23:35.743Z,0.35
2022-09-02T01:26:05.478Z,0.35
2022-09-02T01:28:33.633Z,0.40
2022-09-02T01:31:01.468Z,0.52
2022-09-02T01:33:31.724Z,0.32
2022-09-02T01:35:59.924Z,0.40
2022-09-02T01:38:27.569Z,0.40
2022-09-02T01:40:54.944Z,0.80
2022-09-02T01:43:25.658Z,0.28
2022-09-02T01:45:55.258Z,0.40
2022-09-02T01:48:25.033Z,0.35
2022-09-02T01:50:57.889Z,0.30
2022-09-02T01:53:26.715Z,0.40
2022-09-02T01:55:55.303Z,0.35
2022-09-02T01:58:23.356Z,0.30
2022-09-02T02:00:51.720Z,0.35
2022-09-02T02:03:20.332Z,0.45
2022-09-02T02:05:48.754Z,0.68
2022-09-02T02:08:18.290Z,0.63
2022-09-02T02:10:47.679Z,0.28
2022-09-02T02:13:16.138Z,0.15
2022-09-02T02:15:45.728Z,0.30
2022-09-02T02:18:13.227Z,0.50
2022-09-02T02:20:40.688Z,0.38
2022-09-02T02:23:12.898Z,0.50
2022-09-02T02:25:40.314Z,0.40
2022-09-02T02:28:07.828Z,0.55
2022-09-02T02:30:36.116Z,0.40
2022-09-02T02:33:04.750Z,0.20
2022-09-02T02:35:32.360Z,0.20
2022-09-02T02:38:01.097Z,0.57
2022-09-02T02:40:32.079Z,0.28
2022-09-02T02:43:00.823Z,0.82
2022-09-02T02:45:28.347Z,0.38
2022-09-02T02:47:56.850Z,0.30
2022-09-02T02:50:25.737Z,0.63
2022-09-02T02:52:54.787Z,0.47
2022-09-02T02:55:24.638Z,1.27
2022-09-02T02:57:52.610Z,0.88
2022-09-02T03:00:24.720Z,0.50
2022-09-02T03:02:56.961Z,0.35
2022-09-02T03:07:53.702Z,0.20
2022-09-02T03:10:23.537Z,0.65
2022-09-02T03:12:51.971Z,0.90
2022-09-02T03:15:21.410Z,0.85
2022-09-02T03:17:52.861Z,0.73
2022-09-02T03:20:21.830Z,0.28
2022-09-02T03:25:23.347Z,0.40
2022-09-02T03:27:56.034Z,0.55
2022-09-02T03:30:27.073Z,0.43
2022-09-02T03:33:01.767Z,1.42
2022-09-02T03:35:34.368Z,2.65
2022-09-02T03:38:01.889Z,2.22
2022-09-02T03:40:30.588Z,2.65
2022-09-02T03:43:00.440Z,2.40
2022-09-02T03:45:30.966Z,1.35
2022-09-02T03:48:01.969Z,1.85
2022-09-02T03:50:36.740Z,1.60
2022-09-02T03:53:06.359Z,1.45
2022-09-02T03:55:36.043Z,0.73
2022-09-02T03:58:08.433Z,1.05
2022-09-02T04:00:38.428Z,1.17
2022-09-02T04:03:07.016Z,0.88
2022-09-02T04:05:34.898Z,1.33
2022-09-02T04:08:02.530Z,1.27
2022-09-02T04:10:30.803Z,0.60
2022-09-02T04:12:58.437Z,1.02
2022-09-02T04:15:26.859Z,0.70
2022-09-02T04:17:56.776Z,0.80
2022-09-02T04:20:24.618Z,0.40
2022-09-02T04:22:52.206Z,0.63
2022-09-02T04:25:20.452Z,0.90
2022-09-02T04:27:55.061Z,0.50
2022-09-02T04:30:25.360Z,1.38
2022-09-02T04:32:53.314Z,0.52
2022-09-02T04:35:20.887Z,0.43
2022-09-02T04:37:49.098Z,0.45
2022-09-02T04:40:17.006Z,0.50
2022-09-02T04:42:46.134Z,0.50
2022-09-02T04:45:14.652Z,0.40
2022-09-02T04:47:42.058Z,0.38
2022-09-02T04:50:12.903Z,0.40
2022-09-02T04:52:53.722Z,0.20
2022-09-02T04:55:22.326Z,0.55
2022-09-02T04:57:50.547Z,0.50
2022-09-02T05:00:18.983Z,0.40
2022-09-02T05:02:48.389Z,0.50
2022-09-02T05:05:16.724Z,0.50
2022-09-02T05:07:44.141Z,0.60
2022-09-02T05:10:16.505Z,0.43
2022-09-02T05:12:44.714Z,0.40
2022-09-02T05:15:13.010Z,0.57
2022-09-02T05:17:40.669Z,0.50
2022-09-02T05:20:10.393Z,0.77
2022-09-02T05:22:39.229Z,0.80
2022-09-02T05:25:09.695Z,0.80
2022-09-02T05:27:38.583Z,0.60
2022-09-02T05:30:08.836Z,1.02
2022-09-02T05:32:38.012Z,1.35
2022-09-02T05:35:07.196Z,1.33
2022-09-02T05:37:36.584Z,0.90
2022-09-02T05:40:06.552Z,1.10
2022-09-02T05:42:37.449Z,1.02
2022-09-02T05:45:06.582Z,0.47
2022-09-02T05:47:34.995Z,0.75
2022-09-02T05:50:03.034Z,1.02
2022-09-02T05:52:34.159Z,0.57
2022-09-02T05:55:03.943Z,0.77
2022-09-02T05:57:33.167Z,0.60
2022-09-02T06:00:08.314Z,0.50
2022-09-02T06:02:43.000Z,0.60
2022-09-02T06:05:18.897Z,0.82
2022-09-02T06:07:53.305Z,0.70
2022-09-02T06:10:22.762Z,0.90
2022-09-02T06:12:50.799Z,0.63
2022-09-02T06:15:21.717Z,0.80
2022-09-02T06:17:49.795Z,1.10
2022-09-02T06:20:17.653Z,0.90
2022-09-02T06:22:48.166Z,0.50
2022-09-02T06:25:15.926Z,1.10
2022-09-02T06:27:43.369Z,0.60
2022-09-02T06:30:11.903Z,1.08
2022-09-02T06:32:39.415Z,0.80
2022-09-02T06:35:10.815Z,0.93
2022-09-02T06:37:39.244Z,0.60
2022-09-02T06:40:07.408Z,1.10
2022-09-02T06:42:36.326Z,0.80
2022-09-02T06:45:17.088Z,0.80
2022-09-02T06:47:46.118Z,0.70
2022-09-02T06:50:14.752Z,1.10
2022-09-02T06:52:42.656Z,0.55
2022-09-02T06:55:12.458Z,0.77
2022-09-02T06:57:40.232Z,1.55
2022-09-02T07:00:12.040Z,0.55
2022-09-02T07:02:40.925Z,0.25
2022-09-02T07:05:10.464Z,0.60
2022-09-02T07:07:40.257Z,0.52
2022-09-02T07:10:14.061Z,0.43
2022-09-02T07:12:45.195Z,0.43
2022-09-02T07:15:16.469Z,0.30
2022-09-02T07:17:44.728Z,0.43
2022-09-02T07:20:18.028Z,0.40
2022-09-02T07:22:53.260Z,0.68
2022-09-02T07:25:22.549Z,0.10
2022-09-02T07:27:52.274Z,0.40
2022-09-02T07:30:20.269Z,0.25
2022-09-02T07:32:52.535Z,0.40
2022-09-02T07:35:23.116Z,0.45
2022-09-02T07:37:51.441Z,1.10
2022-09-02T07:40:21.419Z,0.75
2022-09-02T07:42:49.028Z,0.30
2022-09-02T07:45:18.505Z,0.20
2022-09-02T07:47:46.629Z,0.30
2022-09-02T07:50:20.242Z,0.32
2022-09-02T07:52:57.885Z,0.30
2022-09-02T07:55:27.303Z,0.30
2022-09-02T07:57:55.511Z,0.30
2022-09-02T08:00:27.709Z,0.10
2022-09-02T08:03:00.036Z,0.10
2022-09-02T08:05:33.539Z,0.20
2022-09-02T08:08:01.908Z,0.17
2022-09-02T08:10:30.674Z,0.15
2022-09-02T08:13:00.970Z,0.15
2022-09-02T08:15:30.458Z,0.57
2022-09-02T08:17:58.746Z,0.20
2022-09-02T08:20:26.940Z,0.10
2022-09-02T08:23:05.102Z,0.10
2022-09-02T08:25:39.587Z,0.10
2022-09-02T08:28:07.718Z,0.10
2022-09-02T08:30:35.817Z,0.10
2022-09-02T08:33:03.485Z,0.20
2022-09-02T08:35:31.193Z,0.15
2022-09-02T08:38:00.371Z,0.10
2022-09-02T08:40:38.438Z,0.17
2022-09-02T08:43:39.912Z,0.10
2022-09-02T08:46:12.203Z,0.10
2022-09-02T08:49:00.285Z,0.20
2022-09-02T08:51:41.719Z,0.20
2022-09-02T08:56:40.080Z,0.10
2022-09-02T08:59:09.529Z,0.10
2022-09-02T09:02:21.630Z,0.00
2022-09-02T09:05:32.146Z,0.15
2022-09-02T09:08:19.686Z,0.10
2022-09-02T09:11:21.022Z,0.10
2022-09-02T09:14:22.031Z,0.10
2022-09-02T09:17:09.339Z,0.00
2022-09-02T09:19:53.871Z,0.00
2022-09-02T09:22:37.544Z,0.10
2022-09-02T09:25:14.273Z,0.10
2022-09-02T09:27:42.544Z,0.10
2022-09-02T09:30:15.826Z,0.10
2022-09-02T09:32:51.136Z,0.10
2022-09-02T09:35:19.672Z,0.10
2022-09-02T09:37:54.546Z,0.10
2022-09-02T09:40:32.555Z,0.10
2022-09-02T09:43:29.959Z,0.00
2022-09-02T09:45:57.468Z,0.10
2022-09-02T09:48:30.147Z,0.17
2022-09-02T09:51:18.134Z,0.10
2022-09-02T09:53:45.941Z,0.10
2022-09-02T09:56:37.350Z,0.00
2022-09-02T09:59:27.629Z,0.05
2022-09-02T10:01:55.186Z,0.10
2022-09-02T10:04:43.727Z,0.00
2022-09-02T10:07:13.552Z,0.10
2022-09-02T10:09:41.636Z,0.10
2022-09-02T10:12:13.568Z,0.00
2022-09-02T10:14:49.711Z,0.10
2022-09-02T10:17:55.317Z,0.00
2022-09-02T10:20:33.825Z,0.10
2022-09-02T10:23:57.059Z,0.20
2022-09-02T10:26:42.077Z,0.03
2022-09-02T10:29:48.008Z,0.10
2022-09-02T10:32:32.306Z,0.00
2022-09-02T10:35:30.312Z,0.05
2022-09-02T10:38:31.550Z,0.00
2022-09-02T10:41:35.843Z,0.00
2022-09-02T10:44:29.932Z,0.00
2022-09-02T10:47:16.317Z,0.10
2022-09-02T10:50:03.406Z,0.38
2022-09-02T10:53:09.602Z,0.10
2022-09-02T10:55:58.704Z,0.55
2022-09-02T10:59:00.787Z,0.10
2022-09-02T11:01:46.693Z,0.20
2022-09-02T11:04:29.532Z,0.40
2022-09-02T11:07:03.076Z,0.00
2022-09-02T11:09:55.378Z,0.10
2022-09-02T11:12:45.042Z,0.10
2022-09-02T11:15:22.247Z,0.03
2022-09-02T11:18:26.708Z,0.10
2022-09-02T11:21:14.220Z,0.00
2022-09-02T11:24:02.469Z,0.10
2022-09-02T11:26:52.892Z,0.05
2022-09-02T11:29:55.676Z,0.10
2022-09-02T11:32:31.627Z,0.00
2022-09-02T11:35:03.384Z,0.28
2022-09-02T11:40:34.262Z,0.03
2022-09-02T11:43:28.011Z,0.08
2022-09-02T11:46:14.490Z,0.10
2022-09-02T11:49:24.516Z,0.10
2022-09-02T11:52:39.133Z,0.10
2022-09-02T11:55:22.526Z,0.43
2022-09-02T11:58:00.168Z,0.10
2022-09-02T12:00:31.535Z,0.00
2022-09-02T12:03:28.374Z,0.28
2022-09-02T12:06:08.160Z,0.10
2022-09-02T12:08:58.022Z,0.10
2022-09-02T12:11:49.178Z,0.10
2022-09-02T12:14:46.196Z,0.20
2022-09-02T12:17:40.598Z,0.10
2022-09-02T12:20:31.558Z,0.38
2022-09-02T12:23:00.133Z,0.10
2022-09-02T12:25:44.357Z,0.03
2022-09-02T12:28:26.605Z,0.00
2022-09-02T12:31:40.704Z,0.55
2022-09-02T12:34:52.771Z,0.28
2022-09-02T12:37:54.740Z,0.10
2022-09-02T12:40:31.353Z,0.55
2022-09-02T12:43:03.550Z,0.10
2022-09-02T12:45:32.890Z,0.20
2022-09-02T12:48:17.037Z,0.03
2022-09-02T12:50:58.539Z,0.10
2022-09-02T12:53:42.170Z,0.00
2022-09-02T12:56:24.846Z,0.13
2022-09-02T12:59:02.285Z,0.00
2022-09-02T13:02:04.587Z,0.10
2022-09-02T13:07:49.153Z,0.20
2022-09-02T13:11:20.577Z,0.10
2022-09-02T13:14:43.220Z,0.10
2022-09-02T13:20:33.870Z,0.10
2022-09-02T13:23:59.233Z,0.10
2022-09-02T13:27:15.758Z,0.00
2022-09-02T13:30:12.803Z,0.10
2022-09-02T13:32:40.465Z,0.17
2022-09-02T13:35:20.275Z,0.10
2022-09-02T13:37:59.674Z,0.10
2022-09-02T13:40:36.082Z,0.13
2022-09-02T13:43:21.285Z,0.10
2022-09-02T13:45:50.645Z,0.00
2022-09-02T13:48:26.660Z,0.10
2022-09-02T13:50:58.066Z,0.10
2022-09-02T13:53:45.892Z,0.10
2022-09-02T13:56:30.930Z,0.00
2022-09-02T13:58:58.545Z,0.00
2022-09-02T14:01:34.821Z,0.10
2022-09-02T14:04:10.298Z,0.05
2022-09-02T14:06:40.849Z,0.00
2022-09-02T14:09:22.271Z,0.25
2022-09-02T14:11:50.567Z,0.10
2022-09-02T14:14:22.025Z,0.10
2022-09-02T14:16:49.603Z,0.10
2022-09-02T14:19:27.130Z,0.00
2022-09-02T14:21:57.372Z,0.00
2022-09-02T14:24:39.621Z,0.05
2022-09-02T14:27:18.306Z,0.08
2022-09-02T14:29:47.359Z,0.13
2022-09-02T14:32:21.248Z,0.10
2022-09-02T14:34:49.709Z,0.10
2022-09-02T14:37:31.320Z,0.00
2022-09-02T14:40:12.641Z,0.10
2022-09-02T14:42:57.204Z,0.10
2022-09-02T14:45:28.018Z,0.10
2022-09-02T14:47:57.089Z,0.00
2022-09-02T14:50:32.613Z,0.13
2022-09-02T14:53:04.994Z,0.10
2022-09-02T14:55:56.265Z,0.00
2022-09-02T14:58:26.986Z,0.07
2022-09-02T15:00:57.962Z,0.00
2022-09-02T15:03:26.187Z,0.30
2022-09-02T15:05:53.983Z,0.00
2022-09-02T15:08:21.902Z,0.20
2022-09-02T15:10:49.888Z,0.10
2022-09-02T15:13:43.328Z,0.10
2022-09-02T15:16:10.870Z,0.10
2022-09-02T15:18:38.266Z,0.17
2022-09-02T15:21:05.818Z,0.10
2022-09-02T15:23:36.081Z,0.03
2022-09-02T15:26:04.688Z,0.10
2022-09-02T15:28:32.017Z,0.03
2022-09-02T15:31:01.024Z,0.10
2022-09-02T15:33:29.108Z,0.20
2022-09-02T15:36:06.596Z,0.10
2022-09-02T15:38:34.511Z,0.10
2022-09-02T15:41:22.162Z,0.10
2022-09-02T15:43:51.345Z,0.00
2022-09-02T15:46:27.569Z,0.13
2022-09-02T15:49:00.304Z,0.00
2022-09-02T15:51:30.464Z,0.10
2022-09-02T15:54:02.922Z,0.10
2022-09-02T15:56:32.955Z,0.20
2022-09-02T15:59:03.132Z,0.10
2022-09-02T16:01:34.962Z,0.20
2022-09-02T16:06:30.726Z,0.20
2022-09-02T16:08:58.089Z,0.13
2022-09-02T16:11:25.822Z,0.20
2022-09-02T16:13:54.221Z,0.08
2022-09-02T16:16:22.742Z,0.10
2022-09-02T16:18:54.286Z,0.10
2022-09-02T16:21:22.663Z,0.10
2022-09-02T16:23:51.153Z,0.10
2022-09-02T16:26:26.858Z,0.17
2022-09-02T16:28:56.922Z,0.20
2022-09-02T16:31:26.748Z,0.30
2022-09-02T16:33:59.859Z,0.50
2022-09-02T16:36:33.392Z,0.22
2022-09-02T16:39:01.667Z,0.77
2022-09-02T16:41:57.160Z,0.17
2022-09-02T16:44:26.111Z,0.25
2022-09-02T16:46:53.905Z,0.10
2022-09-02T16:49:22.099Z,0.10
2022-09-02T16:51:57.974Z,0.03
2022-09-02T16:54:31.591Z,0.15
2022-09-02T16:57:01.349Z,0.10
2022-09-02T16:59:31.463Z,0.10
2022-09-02T17:01:59.084Z,0.30
2022-09-02T17:04:26.503Z,0.82
2022-09-02T17:06:54.096Z,0.68
2022-09-02T17:09:21.488Z,0.40
2022-09-02T17:11:48.872Z,0.47
2022-09-02T17:14:17.669Z,0.30
2022-09-02T17:16:49.885Z,0.43
2022-09-02T17:19:22.512Z,0.15
2022-09-02T17:21:52.397Z,0.30
2022-09-02T17:24:22.106Z,0.25
2022-09-02T17:26:54.348Z,0.10
2022-09-02T17:29:48.096Z,0.45
2022-09-02T17:32:11.247Z,0.20
2022-09-02T17:34:38.839Z,0.30
2022-09-02T17:37:06.538Z,0.03
2022-09-02T17:39:34.347Z,0.25
2022-09-02T17:42:06.406Z,0.30
2022-09-02T17:44:39.502Z,0.30
2022-09-02T17:47:11.778Z,0.20
2022-09-02T17:49:42.237Z,0.10
2022-09-02T17:52:11.470Z,0.20
2022-09-02T17:54:40.257Z,0.50
2022-09-02T17:57:25.677Z,0.32
2022-09-02T18:00:17.497Z,0.50
2022-09-02T18:03:16.099Z,0.57
2022-09-02T18:06:07.107Z,0.40
2022-09-02T18:08:57.507Z,0.55
2022-09-02T18:11:25.841Z,0.40
2022-09-02T18:14:32.007Z,0.65
2022-09-02T18:17:06.612Z,0.60
2022-09-02T18:19:56.069Z,0.20
2022-09-02T18:22:58.642Z,0.28
2022-09-02T18:25:51.078Z,0.10
2022-09-02T18:29:05.917Z,0.20
2022-09-02T18:31:58.988Z,0.15
2022-09-02T18:34:52.266Z,0.13
2022-09-02T18:38:00.883Z,0.30
2022-09-02T18:41:07.266Z,1.70
2022-09-02T18:43:59.250Z,0.60
2022-09-02T18:46:34.217Z,0.30
2022-09-02T18:49:04.332Z,0.30
2022-09-02T18:51:39.070Z,0.40
2022-09-02T18:54:23.802Z,0.30
2022-09-02T18:56:58.357Z,0.20
2022-09-02T18:59:43.131Z,0.30
2022-09-02T19:02:37.658Z,0.82
2022-09-02T19:05:09.928Z,0.40
2022-09-02T19:07:56.853Z,0.20
2022-09-02T19:10:24.283Z,0.80
2022-09-02T19:12:55.453Z,0.40
2022-09-02T19:15:24.106Z,0.30
2022-09-02T19:17:51.542Z,0.45
2022-09-02T19:20:18.954Z,0.28
2022-09-02T19:22:52.347Z,0.20
2022-09-02T19:25:25.451Z,0.43
2022-09-02T19:27:55.663Z,0.65
2022-09-02T19:30:23.735Z,0.30
2022-09-02T19:32:57.242Z,0.35
2022-09-02T19:35:27.747Z,0.30
2022-09-02T19:37:55.641Z,0.47
2022-09-02T19:40:26.606Z,0.30
2022-09-02T19:42:54.166Z,0.30
2022-09-02T19:45:22.670Z,0.20
2022-09-02T19:48:06.692Z,0.30
2022-09-02T19:50:46.339Z,0.73
2022-09-02T19:53:25.243Z,0.30
2022-09-02T19:55:52.676Z,0.60
2022-09-02T19:58:20.127Z,0.30
2022-09-02T20:00:48.391Z,0.50
2022-09-02T20:03:16.633Z,0.35
2022-09-02T20:05:44.029Z,0.30
2022-09-02T20:08:11.411Z,0.30
2022-09-02T20:10:39.575Z,0.30
2022-09-02T20:13:07.621Z,0.30
2022-09-02T20:15:38.785Z,0.22
2022-09-02T20:18:14.250Z,0.50
2022-09-02T20:20:47.183Z,0.50
2022-09-02T20:23:17.615Z,0.70
2022-09-02T20:26:23.489Z,0.80
2022-09-02T20:29:13.078Z,0.47
2022-09-02T20:31:58.711Z,0.40
2022-09-02T20:35:01.346Z,0.47
2022-09-02T20:37:41.495Z,0.52
2022-09-02T20:40:36.757Z,0.30
2022-09-02T20:43:25.275Z,0.35
2022-09-02T20:46:06.080Z,0.38
2022-09-02T20:49:37.903Z,0.30
2022-09-02T20:52:18.084Z,0.28
2022-09-02T20:55:11.303Z,0.80
2022-09-02T20:58:16.815Z,0.32
2022-09-02T21:01:04.593Z,0.28
2022-09-02T21:03:46.323Z,0.25
2022-09-02T21:06:14.274Z,0.43
2022-09-02T21:09:37.229Z,0.35
2022-09-02T21:12:19.019Z,0.20
2022-09-02T21:14:49.080Z,0.20
2022-09-02T21:17:23.974Z,0.15
2022-09-02T21:19:58.767Z,0.30
2022-09-02T21:22:42.054Z,0.30
2022-09-02T21:25:38.322Z,0.20
2022-09-02T21:28:14.968Z,0.38
2022-09-02T21:30:58.121Z,0.40
2022-09-02T21:33:28.659Z,0.68
2022-09-02T21:36:00.047Z,0.28
2022-09-02T21:38:46.082Z,0.40
2022-09-02T21:41:32.887Z,0.20
2022-09-02T21:44:38.059Z,0.30
2022-09-02T21:47:35.413Z,0.20
2022-09-02T21:50:13.180Z,0.40
2022-09-02T21:53:09.352Z,0.40
2022-09-02T21:55:57.184Z,0.60
2022-09-02T21:59:03.592Z,0.30
2022-09-02T22:01:46.337Z,0.30
2022-09-02T22:04:42.624Z,0.20
2022-09-02T22:07:25.233Z,0.20
2022-09-02T22:10:11.104Z,0.50
2022-09-02T22:12:42.097Z,0.20
2022-09-02T22:15:30.847Z,0.40
2022-09-02T22:18:19.909Z,0.17
2022-09-02T22:20:52.332Z,0.20
2022-09-02T22:23:26.118Z,0.38
2022-09-02T22:26:19.015Z,0.47
2022-09-02T22:28:53.079Z,0.35
2022-09-02T22:31:26.075Z,0.30
2022-09-02T22:33:58.587Z,0.73
2022-09-02T22:36:37.310Z,0.30
2022-09-02T22:39:05.485Z,0.10
2022-09-02T22:41:50.918Z,0.20
2022-09-02T22:44:50.071Z,0.28
2022-09-02T22:47:39.073Z,0.65
2022-09-02T22:50:30.036Z,0.20
2022-09-02T22:52:57.841Z,0.30
2022-09-02T22:55:58.412Z,0.10
2022-09-02T22:59:04.953Z,0.20
2022-09-02T23:02:04.746Z,0.30
2022-09-02T23:04:52.343Z,0.20
2022-09-02T23:07:19.724Z,0.17
2022-09-02T23:09:49.060Z,0.30
2022-09-02T23:12:53.515Z,0.22
2022-09-02T23:15:36.934Z,0.10
2022-09-02T23:18:31.497Z,0.20
2022-09-02T23:21:32.851Z,0.20
2022-09-02T23:24:33.270Z,0.20
2022-09-02T23:27:27.130Z,0.45
2022-09-02T23:29:55.010Z,0.32
2022-09-02T23:33:10.075Z,0.20
2022-09-02T23:35:54.450Z,0.30
2022-09-02T23:39:19.097Z,0.20
2022-09-02T23:41:46.965Z,0.20
2022-09-02T23:44:14.370Z,0.10
2022-09-02T23:47:13.653Z,0.20
2022-09-02T23:50:17.426Z,0.10
2022-09-02T23:52:58.879Z,0.90
2022-09-02T23:56:32.681Z,0.50
2022-09-02T23:59:42.074Z,0.10
